Time;durP1;ratioP1;P1;durP2;ratioP2;P2;SDS_P1;SDS_P2;PMS_P1;PMS_P2;Temp;Humidity;BMP_temperature;BMP_pressure;BME280_temperature;BME280_humidity;BME280_pressure;Samples;Min_cycle;Max_cycle;Signal;HPM_P1;HPM_P2
2021/09/22 00:00:18;;;;;;;4.68;3.67;;;12.80;99.90;;;;;;5065783;28;20178;-68
2021/09/22 00:02:43;;;;;;;4.72;3.58;;;12.80;99.90;;;;;;5065645;28;20174;-67
2021/09/22 00:05:10;;;;;;;5.00;3.67;;;12.80;99.90;;;;;;5066281;28;20293;-68
2021/09/22 00:07:36;;;;;;;4.72;3.60;;;12.80;99.90;;;;;;5065875;28;20206;-69
2021/09/22 00:10:03;;;;;;;5.70;4.45;;;12.80;99.90;;;;;;5065542;28;20266;-67
2021/09/22 00:12:29;;;;;;;6.80;4.35;;;12.80;99.90;;;;;;5064342;28;20607;-70
2021/09/22 00:14:54;;;;;;;4.88;3.95;;;12.80;99.90;;;;;;5065736;28;20173;-70
2021/09/22 00:17:20;;;;;;;5.38;3.97;;;12.80;99.90;;;;;;5065651;28;20209;-70
2021/09/22 00:19:45;;;;;;;5.22;4.00;;;12.80;99.90;;;;;;5065596;28;20667;-69
2021/09/22 00:22:11;;;;;;;6.53;4.30;;;12.80;99.90;;;;;;5064849;28;20213;-67
2021/09/22 00:24:37;;;;;;;4.78;3.90;;;12.90;99.90;;;;;;5065683;28;20591;-68
2021/09/22 00:27:05;;;;;;;4.72;4.00;;;12.90;99.90;;;;;;5065613;28;20197;-69
2021/09/22 00:29:31;;;;;;;6.40;4.28;;;12.90;99.90;;;;;;5063093;28;20772;-70
2021/09/22 00:31:57;;;;;;;4.50;3.75;;;12.90;99.90;;;;;;5064129;28;20229;-69
2021/09/22 00:34:22;;;;;;;7.88;4.30;;;12.90;99.90;;;;;;5066157;28;20615;-69
2021/09/22 00:36:49;;;;;;;7.38;4.30;;;13.00;99.90;;;;;;5065462;28;20178;-69
2021/09/22 00:39:15;;;;;;;6.40;4.20;;;13.00;99.90;;;;;;5064850;28;20200;-69
2021/09/22 00:41:41;;;;;;;5.65;4.03;;;13.00;99.90;;;;;;5064237;28;20217;-68
2021/09/22 00:44:07;;;;;;;7.65;3.97;;;13.00;99.90;;;;;;5065211;28;20205;-68
2021/09/22 00:46:33;;;;;;;6.05;4.45;;;13.00;99.90;;;;;;5065045;28;20267;-67
2021/09/22 00:48:58;;;;;;;5.65;4.55;;;13.00;99.90;;;;;;5065302;28;20209;-69
2021/09/22 00:51:24;;;;;;;5.63;4.13;;;13.10;99.90;;;;;;5064432;28;20348;-69
2021/09/22 00:53:50;;;;;;;6.30;4.32;;;13.10;99.90;;;;;;5064862;28;20182;-67
2021/09/22 00:56:16;;;;;;;6.70;4.15;;;13.00;99.90;;;;;;5064757;28;20270;-69
2021/09/22 00:58:42;;;;;;;5.18;4.10;;;13.00;99.90;;;;;;5065367;28;20235;-70
2021/09/22 01:01:07;;;;;;;6.93;4.40;;;13.00;99.90;;;;;;5064579;28;20197;-68
2021/09/22 01:03:33;;;;;;;8.15;4.45;;;13.00;99.90;;;;;;5064824;28;20640;-69
2021/09/22 01:06:00;;;;;;;7.00;4.60;;;13.10;99.90;;;;;;5064825;28;20606;-68
2021/09/22 01:08:32;;;;;;;5.78;4.53;;;13.10;99.90;;;;;;5064848;28;20201;-68
2021/09/22 01:10:58;;;;;;;6.28;4.60;;;13.10;99.90;;;;;;5064135;28;20197;-69
2021/09/22 01:13:25;;;;;;;7.50;4.53;;;13.10;99.90;;;;;;5064344;28;20169;-70
2021/09/22 01:15:51;;;;;;;10.70;4.97;;;13.10;99.90;;;;;;5065039;28;20157;-67
2021/09/22 01:18:22;;;;;;;7.22;4.90;;;13.00;99.90;;;;;;5064570;28;20193;-69
2021/09/22 01:20:53;;;;;;;9.45;5.07;;;13.00;99.90;;;;;;5064571;28;20205;-70
2021/09/22 01:23:20;;;;;;;8.52;5.22;;;12.90;99.90;;;;;;5064171;28;20229;-69
2021/09/22 01:25:47;;;;;;;6.90;4.88;;;12.80;99.90;;;;;;5064777;28;20175;-69
2021/09/22 01:28:15;;;;;;;8.55;5.20;;;12.70;99.90;;;;;;5063274;28;20205;-69
2021/09/22 01:30:41;;;;;;;7.30;4.90;;;12.50;99.90;;;;;;5064236;28;20220;-68
2021/09/22 01:33:09;;;;;;;7.40;5.13;;;12.50;99.90;;;;;;5063967;28;20182;-69
2021/09/22 01:35:40;;;;;;;8.40;5.13;;;12.40;99.90;;;;;;5064579;28;20789;-67
2021/09/22 01:38:08;;;;;;;8.82;5.10;;;12.30;99.90;;;;;;5064944;28;20268;-67
2021/09/22 01:40:34;;;;;;;7.00;5.05;;;12.20;99.90;;;;;;5046249;28;20255;-68
2021/09/22 01:43:01;;;;;;;8.73;5.75;;;12.20;99.90;;;;;;5063640;28;20220;-69
2021/09/22 01:45:27;;;;;;;7.93;4.70;;;12.20;99.90;;;;;;5064607;28;20181;-70
2021/09/22 01:47:52;;;;;;;8.63;5.38;;;12.00;99.90;;;;;;5064726;28;20552;-70
2021/09/22 01:50:20;;;;;;;8.30;5.47;;;12.00;99.90;;;;;;5063675;28;20181;-69
2021/09/22 01:52:49;;;;;;;8.02;5.03;;;12.00;99.90;;;;;;5064091;28;20166;-67
2021/09/22 01:55:25;;;;;;;9.70;5.47;;;12.00;99.90;;;;;;5064971;28;20193;-69
2021/09/22 01:57:51;;;;;;;10.60;5.25;;;11.90;99.90;;;;;;5066222;28;20181;-67
2021/09/22 02:00:17;;;;;;;8.63;5.53;;;11.90;99.90;;;;;;5068404;28;20188;-69
2021/09/22 02:02:43;;;;;;;7.78;5.45;;;11.90;99.90;;;;;;5067840;28;20185;-69
2021/09/22 02:05:09;;;;;;;8.60;5.78;;;12.00;99.90;;;;;;5068075;28;20207;-70
2021/09/22 02:07:35;;;;;;;12.00;5.68;;;12.00;99.90;;;;;;5068081;28;20178;-68
2021/09/22 02:10:03;;;;;;;7.82;5.75;;;12.00;99.90;;;;;;5067977;28;20527;-67
2021/09/22 02:12:29;;;;;;;9.23;5.82;;;12.00;99.90;;;;;;5049250;28;20515;-70
2021/09/22 02:14:55;;;;;;;7.70;5.65;;;12.00;99.90;;;;;;5068037;28;20182;-68
2021/09/22 02:17:21;;;;;;;10.60;5.82;;;11.90;99.90;;;;;;5068136;28;20268;-69
2021/09/22 02:19:48;;;;;;;7.30;5.38;;;11.90;99.90;;;;;;5067920;28;20272;-69
2021/09/22 02:22:13;;;;;;;7.70;5.70;;;11.90;99.90;;;;;;5067583;28;20701;-70
2021/09/22 02:24:42;;;;;;;8.95;5.55;;;11.80;99.90;;;;;;5068555;28;20173;-66
2021/09/22 02:27:12;;;;;;;9.30;5.93;;;11.80;99.90;;;;;;5067804;28;20181;-69
2021/09/22 02:29:38;;;;;;;7.57;5.25;;;11.70;99.90;;;;;;5065005;28;20296;-70
2021/09/22 02:32:04;;;;;;;10.88;6.57;;;11.70;99.90;;;;;;5064633;28;20221;-69
2021/09/22 02:34:30;;;;;;;7.72;5.75;;;11.70;99.90;;;;;;5066743;28;20169;-70
2021/09/22 02:36:56;;;;;;;9.18;6.53;;;11.70;99.90;;;;;;5067994;28;20527;-70
2021/09/22 02:39:22;;;;;;;9.20;5.80;;;11.70;99.90;;;;;;5067393;28;20197;-70
2021/09/22 02:41:47;;;;;;;8.00;5.97;;;11.80;99.90;;;;;;5066203;28;20703;-68
2021/09/22 02:44:13;;;;;;;8.15;5.80;;;11.70;99.90;;;;;;5067080;28;20193;-69
2021/09/22 02:46:39;;;;;;;7.47;6.13;;;11.70;99.90;;;;;;5067495;28;20220;-69
2021/09/22 02:49:04;;;;;;;8.45;6.00;;;11.70;99.90;;;;;;5049096;28;20355;-69
2021/09/22 02:51:30;;;;;;;9.63;6.30;;;11.70;99.90;;;;;;5066077;28;20197;-69
2021/09/22 02:53:56;;;;;;;9.25;6.20;;;11.70;99.90;;;;;;5067100;28;20671;-69
2021/09/22 02:56:21;;;;;;;9.27;6.15;;;11.60;99.90;;;;;;5067161;28;20629;-68
2021/09/22 02:58:47;;;;;;;9.05;6.47;;;11.60;99.90;;;;;;5049018;28;20181;-68
2021/09/22 03:01:13;;;;;;;10.60;6.88;;;11.60;99.90;;;;;;5067155;28;20215;-69
2021/09/22 03:03:38;;;;;;;8.75;6.38;;;11.70;99.90;;;;;;5066834;28;20173;-69
2021/09/22 03:06:04;;;;;;;11.07;7.07;;;11.70;99.90;;;;;;5066898;28;20193;-70
2021/09/22 03:08:30;;;;;;;10.35;7.20;;;11.70;99.90;;;;;;5066720;28;20542;-68
2021/09/22 03:10:56;;;;;;;11.45;7.20;;;11.60;99.90;;;;;;5066784;28;20194;-68
2021/09/22 03:13:21;;;;;;;11.10;7.65;;;11.60;99.90;;;;;;5066468;28;20180;-67
2021/09/22 03:15:48;;;;;;;13.07;8.38;;;11.50;99.90;;;;;;5048723;28;20178;-67
2021/09/22 03:18:13;;;;;;;11.10;7.72;;;11.40;99.90;;;;;;5067013;28;20703;-68
2021/09/22 03:20:39;;;;;;;10.65;7.72;;;11.40;99.90;;;;;;5066272;28;20232;-67
2021/09/22 03:23:05;;;;;;;11.70;8.48;;;11.40;99.90;;;;;;5066425;28;20224;-70
2021/09/22 03:25:30;;;;;;;10.65;8.07;;;11.30;99.90;;;;;;5048582;28;20242;-68
2021/09/22 03:27:56;;;;;;;14.27;8.45;;;11.20;99.90;;;;;;5066991;28;20209;-69
2021/09/22 03:30:21;;;;;;;15.38;9.25;;;11.20;99.90;;;;;;5066576;28;20482;-68
2021/09/22 03:32:47;;;;;;;13.77;9.60;;;11.20;99.90;;;;;;5048190;28;20842;-69
2021/09/22 03:35:13;;;;;;;16.63;10.32;;;11.20;99.90;;;;;;5066768;28;20184;-69
2021/09/22 03:37:38;;;;;;;16.05;9.45;;;11.20;99.90;;;;;;5066424;28;20203;-70
2021/09/22 03:40:05;;;;;;;14.70;9.90;;;11.10;99.90;;;;;;5066237;28;20177;-69
2021/09/22 03:42:31;;;;;;;13.65;9.18;;;11.00;99.90;;;;;;5065835;28;20196;-70
2021/09/22 03:44:56;;;;;;;17.52;9.60;;;10.90;99.90;;;;;;5066627;28;20185;-68
2021/09/22 03:47:22;;;;;;;16.08;10.13;;;10.80;99.90;;;;;;5048152;28;20185;-69
2021/09/22 03:49:48;;;;;;;16.27;9.95;;;10.80;99.90;;;;;;5066151;28;20201;-69
2021/09/22 03:52:13;;;;;;;14.98;9.77;;;10.80;99.90;;;;;;5065051;28;20221;-68
2021/09/22 03:54:39;;;;;;;14.82;10.18;;;10.70;99.90;;;;;;5066202;28;20610;-69
2021/09/22 03:57:05;;;;;;;14.85;9.48;;;10.70;99.90;;;;;;5066168;28;20185;-68
2021/09/22 03:59:31;;;;;;;15.18;9.52;;;10.60;99.90;;;;;;5066275;28;20177;-68
2021/09/22 04:01:57;;;;;;;13.77;9.50;;;10.70;99.90;;;;;;5064903;28;20209;-67
2021/09/22 04:04:22;;;;;;;13.23;9.30;;;10.70;99.90;;;;;;5066025;28;20221;-68
2021/09/22 04:06:48;;;;;;;19.90;10.43;;;10.70;99.90;;;;;;5066124;28;20248;-70
2021/09/22 04:09:14;;;;;;;14.97;10.20;;;10.70;99.90;;;;;;5065722;28;20317;-70
2021/09/22 04:11:40;;;;;;;15.67;9.63;;;10.60;99.90;;;;;;5064778;28;20198;-70
2021/09/22 04:14:05;;;;;;;14.50;10.30;;;10.50;99.90;;;;;;5065868;28;20178;-69
2021/09/22 04:16:31;;;;;;;17.07;10.87;;;10.50;99.90;;;;;;5066236;28;20635;-67
2021/09/22 04:18:57;;;;;;;16.30;10.00;;;10.40;99.90;;;;;;5065635;28;20184;-69
2021/09/22 04:21:22;;;;;;;18.10;10.30;;;10.30;99.90;;;;;;5064397;28;20382;-69
2021/09/22 04:23:48;;;;;;;15.67;10.50;;;10.30;99.90;;;;;;5065239;28;20176;-70
2021/09/22 04:26:14;;;;;;;16.70;11.17;;;10.30;99.90;;;;;;5065796;28;20189;-69
2021/09/22 04:28:39;;;;;;;15.00;9.73;;;10.30;99.90;;;;;;5065715;28;20205;-68
2021/09/22 04:31:05;;;;;;;17.07;10.27;;;10.30;99.90;;;;;;5046800;28;20194;-67
2021/09/22 04:33:31;;;;;;;16.60;11.20;;;10.30;99.90;;;;;;5064907;28;20181;-70
2021/09/22 04:35:57;;;;;;;18.23;10.40;;;10.30;99.90;;;;;;5065175;28;20185;-69
2021/09/22 04:38:23;;;;;;;17.33;11.20;;;10.30;99.90;;;;;;5065522;28;20217;-70
2021/09/22 04:40:49;;;;;;;15.00;10.73;;;10.30;99.90;;;;;;5064482;28;20682;-69
2021/09/22 04:43:14;;;;;;;16.57;11.20;;;10.30;99.90;;;;;;5064747;28;20178;-70
2021/09/22 04:45:42;;;;;;;13.77;9.20;;;10.30;99.90;;;;;;5064821;28;20173;-70
2021/09/22 04:48:08;;;;;;;15.20;10.80;;;10.30;99.90;;;;;;5064698;28;20266;-70
2021/09/22 04:50:33;;;;;;;17.77;11.27;;;10.20;99.90;;;;;;5065114;28;20657;-69
2021/09/22 04:52:59;;;;;;;15.02;10.18;;;10.20;99.90;;;;;;5064090;28;20213;-70
2021/09/22 04:55:25;;;;;;;16.33;10.13;;;10.10;99.90;;;;;;5064540;28;20182;-70
2021/09/22 04:57:51;;;;;;;18.97;11.67;;;10.10;99.90;;;;;;5064844;28;20188;-70
2021/09/22 05:00:17;;;;;;;16.17;10.93;;;10.10;99.90;;;;;;5064601;28;20652;-68
2021/09/22 05:02:42;;;;;;;16.30;11.13;;;10.10;99.90;;;;;;5064565;28;20211;-69
2021/09/22 05:05:09;;;;;;;20.53;11.03;;;10.00;99.90;;;;;;5064942;28;20213;-70
2021/09/22 05:07:34;;;;;;;16.43;10.70;;;10.00;99.90;;;;;;5064911;28;20198;-70
2021/09/22 05:10:00;;;;;;;16.33;10.57;;;10.00;99.90;;;;;;5064693;28;20246;-68
2021/09/22 05:12:25;;;;;;;14.57;10.13;;;10.00;99.90;;;;;;5063676;28;20292;-70
2021/09/22 05:14:51;;;;;;;13.07;9.77;;;9.90;99.90;;;;;;5062796;28;20173;-69
2021/09/22 05:17:17;;;;;;;14.33;10.23;;;9.90;99.90;;;;;;5064615;28;20626;-67
2021/09/22 05:19:43;;;;;;;19.00;11.23;;;9.90;99.90;;;;;;5064047;28;20592;-68
2021/09/22 05:22:08;;;;;;;20.87;10.80;;;10.00;99.90;;;;;;5063181;28;20284;-67
2021/09/22 05:24:34;;;;;;;16.93;10.27;;;10.00;99.90;;;;;;5062168;28;20208;-67
2021/09/22 05:26:59;;;;;;;16.90;11.47;;;10.00;99.90;;;;;;5063509;28;20628;-69
2021/09/22 05:29:25;;;;;;;15.37;10.47;;;10.10;99.90;;;;;;5063937;28;20200;-67
2021/09/22 05:31:51;;;;;;;15.33;10.73;;;10.20;99.90;;;;;;5063447;28;20204;-68
2021/09/22 05:34:16;;;;;;;15.97;10.57;;;10.10;99.90;;;;;;5064418;28;20200;-70
2021/09/22 05:36:42;;;;;;;17.60;11.70;;;10.10;99.90;;;;;;5063978;28;20674;-69
2021/09/22 05:39:07;;;;;;;18.83;11.60;;;10.10;99.90;;;;;;5064207;28;20177;-69
2021/09/22 05:41:33;;;;;;;13.67;9.57;;;10.20;99.90;;;;;;5063262;28;20566;-70
2021/09/22 05:43:59;;;;;;;19.23;11.83;;;10.20;99.90;;;;;;5064559;28;20543;-69
2021/09/22 05:46:25;;;;;;;16.67;10.83;;;10.30;99.90;;;;;;5059003;28;20263;-69
2021/09/22 05:48:50;;;;;;;16.67;10.23;;;10.30;99.90;;;;;;5063542;28;20600;-67
2021/09/22 05:51:16;;;;;;;14.13;9.43;;;10.40;99.90;;;;;;5061724;28;20204;-68
2021/09/22 05:53:43;;;;;;;17.13;10.50;;;10.40;99.90;;;;;;5063120;28;20182;-69
2021/09/22 05:56:10;;;;;;;14.70;10.07;;;10.40;99.90;;;;;;5063324;28;20169;-70
2021/09/22 05:58:35;;;;;;;18.67;10.83;;;10.60;99.90;;;;;;5063414;28;20194;-70
2021/09/22 06:01:01;;;;;;;17.40;12.60;;;10.60;99.90;;;;;;5063146;28;20207;-69
2021/09/22 06:03:26;;;;;;;18.63;12.27;;;10.70;99.90;;;;;;5062962;28;20204;-69
2021/09/22 06:05:52;;;;;;;14.57;11.23;;;10.90;99.90;;;;;;5063463;28;20330;-67
2021/09/22 06:08:18;;;;;;;17.02;11.20;;;10.90;99.90;;;;;;5063224;28;20300;-68
2021/09/22 06:10:44;;;;;;;15.45;11.02;;;11.10;99.90;;;;;;5063615;28;20200;-67
2021/09/22 06:13:10;;;;;;;14.93;10.33;;;11.20;99.90;;;;;;5062504;28;20568;-69
2021/09/22 06:15:36;;;;;;;15.73;10.47;;;11.20;99.90;;;;;;5063708;28;20181;-67
2021/09/22 06:18:02;;;;;;;14.57;10.98;;;11.40;99.90;;;;;;5063253;28;20909;-71
2021/09/22 06:20:28;;;;;;;16.80;10.68;;;11.40;99.90;;;;;;5063240;28;20689;-68
2021/09/22 06:22:54;;;;;;;17.45;11.82;;;11.60;99.90;;;;;;5063016;28;20189;-71
2021/09/22 06:25:20;;;;;;;15.82;10.73;;;11.70;99.90;;;;;;5063255;28;20683;-70
2021/09/22 06:27:46;;;;;;;16.00;11.02;;;11.90;99.90;;;;;;5045302;28;20268;-70
2021/09/22 06:30:13;;;;;;;16.52;10.95;;;12.10;99.90;;;;;;5044668;28;20194;-69
2021/09/22 06:32:39;;;;;;;14.90;11.30;;;12.20;99.90;;;;;;5062162;28;20710;-68
2021/09/22 06:35:07;;;;;;;15.00;10.93;;;12.40;99.90;;;;;;5061829;28;20196;-70
2021/09/22 06:37:32;;;;;;;17.83;11.55;;;12.50;99.90;;;;;;5061421;28;20660;-68
2021/09/22 06:39:58;;;;;;;21.27;12.50;;;12.60;99.90;;;;;;5061969;28;20306;-68
2021/09/22 06:42:24;;;;;;;16.75;11.07;;;12.70;99.90;;;;;;5061974;28;20228;-68
2021/09/22 06:44:49;;;;;;;17.70;11.40;;;12.60;99.90;;;;;;5066097;28;20656;-70
2021/09/22 06:47:15;;;;;;;15.95;11.38;;;12.60;99.90;;;;;;5066211;28;20181;-68
2021/09/22 06:49:40;;;;;;;18.15;11.48;;;12.70;99.90;;;;;;5066239;28;20217;-70
2021/09/22 06:52:06;;;;;;;17.25;11.52;;;12.80;99.90;;;;;;5064079;28;20205;-69
2021/09/22 06:54:33;;;;;;;19.13;11.95;;;12.90;99.90;;;;;;5066532;28;20426;-69
2021/09/22 06:57:00;;;;;;;16.23;10.65;;;13.00;99.90;;;;;;5066737;28;20174;-69
2021/09/22 06:59:25;;;;;;;15.23;10.63;;;13.00;99.90;;;;;;5066003;28;20180;-70
2021/09/22 07:01:51;;;;;;;17.65;11.30;;;13.20;99.90;;;;;;5065238;28;20197;-71
2021/09/22 07:04:16;;;;;;;15.30;11.15;;;13.30;99.90;;;;;;5066076;28;20192;-68
2021/09/22 07:06:42;;;;;;;16.20;10.85;;;13.40;99.90;;;;;;5066160;28;20188;-69
2021/09/22 07:09:08;;;;;;;16.80;11.50;;;13.60;99.90;;;;;;5066377;28;20209;-67
2021/09/22 07:11:33;;;;;;;16.67;11.60;;;13.80;99.90;;;;;;5065022;28;20962;-70
2021/09/22 07:13:59;;;;;;;16.85;10.15;;;14.00;99.90;;;;;;5066320;28;20192;-68
2021/09/22 07:16:25;;;;;;;15.85;12.27;;;14.20;99.90;;;;;;5065985;28;20235;-71
2021/09/22 07:18:51;;;;;;;17.10;10.48;;;14.30;99.90;;;;;;5066034;28;20181;-70
2021/09/22 07:21:17;;;;;;;19.35;11.27;;;14.40;99.90;;;;;;5065003;28;20243;-69
2021/09/22 07:23:42;;;;;;;16.83;11.00;;;14.50;99.90;;;;;;5065508;28;20256;-70
2021/09/22 07:26:08;;;;;;;17.13;10.82;;;14.40;99.90;;;;;;5065226;28;20181;-68
2021/09/22 07:28:36;;;;;;;17.02;10.77;;;14.40;99.90;;;;;;5047930;28;20207;-70
2021/09/22 07:31:03;;;;;;;15.40;10.77;;;14.40;99.90;;;;;;5065110;28;20198;-69
2021/09/22 07:33:29;;;;;;;14.80;10.27;;;14.50;99.90;;;;;;5064962;28;20170;-70
2021/09/22 07:35:56;;;;;;;15.98;10.13;;;14.70;99.90;;;;;;5066137;28;20200;-69
2021/09/22 07:38:22;;;;;;;15.45;10.50;;;14.80;99.90;;;;;;5065756;28;20181;-68
2021/09/22 07:40:48;;;;;;;16.17;10.07;;;15.00;99.90;;;;;;5065143;28;20663;-67
2021/09/22 07:43:14;;;;;;;15.43;10.68;;;15.20;99.90;;;;;;5064950;28;20185;-67
2021/09/22 07:45:39;;;;;;;15.98;9.70;;;15.30;99.90;;;;;;5065465;28;20632;-70
2021/09/22 07:48:06;;;;;;;14.32;9.43;;;15.30;99.90;;;;;;5065475;28;20201;-67
2021/09/22 07:50:32;;;;;;;16.67;10.48;;;15.40;99.90;;;;;;5065292;28;20649;-69
2021/09/22 07:52:58;;;;;;;15.75;10.38;;;15.40;99.90;;;;;;5064831;28;20188;-70
2021/09/22 07:55:23;;;;;;;14.73;9.85;;;15.40;99.90;;;;;;5064392;28;20186;-69
2021/09/22 07:57:53;;;;;;;17.85;10.45;;;15.50;99.90;;;;;;5065236;28;20186;-69
2021/09/22 08:00:18;;;;;;;14.95;9.48;;;15.50;99.90;;;;;;5064599;28;20653;-70
2021/09/22 08:02:44;;;;;;;16.13;10.13;;;15.70;99.90;;;;;;5046168;28;20193;-69
2021/09/22 08:05:11;;;;;;;15.52;9.43;;;16.00;99.90;;;;;;5065039;28;20541;-69
2021/09/22 08:07:36;;;;;;;16.90;9.93;;;16.00;99.90;;;;;;5064958;28;20625;-68
2021/09/22 08:10:06;;;;;;;12.50;8.70;;;16.10;99.90;;;;;;5064499;28;20185;-68
2021/09/22 08:12:32;;;;;;;16.42;8.05;;;16.20;99.90;;;;;;5064407;28;20586;-70
2021/09/22 08:14:58;;;;;;;16.65;9.32;;;16.10;99.90;;;;;;5064957;28;20183;-70
2021/09/22 08:17:24;;;;;;;14.60;8.70;;;16.10;99.90;;;;;;5064841;28;20592;-70
2021/09/22 08:19:49;;;;;;;11.13;7.60;;;16.10;99.90;;;;;;5064858;28;20181;-67
2021/09/22 08:22:17;;;;;;;13.45;7.60;;;16.10;99.90;;;;;;5063745;28;20210;-68
2021/09/22 08:24:43;;;;;;;12.60;7.72;;;16.20;99.90;;;;;;5064315;28;20270;-69
2021/09/22 08:27:09;;;;;;;15.57;7.85;;;16.20;99.90;;;;;;5064145;28;20632;-68
2021/09/22 08:29:34;;;;;;;13.13;8.10;;;16.40;99.90;;;;;;5064324;28;20193;-69
2021/09/22 08:32:00;;;;;;;11.43;7.90;;;16.60;99.90;;;;;;5063606;28;20198;-70
2021/09/22 08:34:26;;;;;;;13.48;7.30;;;16.50;99.90;;;;;;5064477;28;20230;-68
2021/09/22 08:36:52;;;;;;;12.65;7.40;;;16.60;99.90;;;;;;5064572;28;20192;-70
2021/09/22 08:39:19;;;;;;;15.73;7.82;;;16.60;99.90;;;;;;5064354;28;20205;-70
2021/09/22 08:41:45;;;;;;;16.10;7.82;;;16.70;99.90;;;;;;5063186;28;20672;-67
2021/09/22 08:44:13;;;;;;;11.23;7.07;;;16.90;99.90;;;;;;5046309;28;20543;-70
2021/09/22 08:46:40;;;;;;;14.80;6.85;;;17.20;99.90;;;;;;5064941;28;20315;-69
2021/09/22 08:49:07;;;;;;;11.93;6.35;;;17.40;99.90;;;;;;5064175;28;20746;-70
2021/09/22 08:51:33;;;;;;;11.45;6.72;;;17.60;99.90;;;;;;5045461;28;20228;-69
2021/09/22 08:53:59;;;;;;;13.00;6.53;;;17.60;99.90;;;;;;5064637;28;20593;-69
2021/09/22 08:56:26;;;;;;;7.57;5.32;;;17.70;99.90;;;;;;5063678;28;20181;-69
2021/09/22 08:58:52;;;;;;;13.18;6.13;;;18.00;99.90;;;;;;5064330;28;20640;-69
2021/09/22 09:01:20;;;;;;;13.50;6.05;;;18.10;99.90;;;;;;5063382;28;20208;-70
2021/09/22 09:03:47;;;;;;;12.63;6.07;;;17.90;99.90;;;;;;5064137;28;20635;-68
2021/09/22 09:06:26;;;;;;;9.45;5.25;;;17.80;99.90;;;;;;5063259;28;20204;-69
2021/09/22 09:08:55;;;;;;;8.98;4.47;;;17.70;99.90;;;;;;5046168;28;20224;-70
2021/09/22 09:11:29;;;;;;;10.88;4.72;;;17.70;99.90;;;;;;5063621;28;20260;-68
2021/09/22 09:13:57;;;;;;;7.38;4.40;;;17.70;99.90;;;;;;5063917;28;20188;-69
2021/09/22 09:16:23;;;;;;;8.90;3.90;;;17.60;99.90;;;;;;5064012;28;20196;-70
2021/09/22 09:18:55;;;;;;;8.13;3.78;;;17.30;99.90;;;;;;5064400;28;20189;-69
2021/09/22 09:21:22;;;;;;;6.97;3.28;;;17.30;99.90;;;;;;5063080;28;20704;-71
2021/09/22 09:24:06;;;;;;;8.98;3.42;;;17.50;99.90;;;;;;5063444;28;20173;-69
2021/09/22 09:26:31;;;;;;;5.25;2.88;;;17.70;99.90;;;;;;5063971;28;20173;-69
2021/09/22 09:28:59;;;;;;;5.75;3.08;;;17.80;99.90;;;;;;5063476;28;20201;-70
2021/09/22 09:31:33;;;;;;;5.30;2.90;;;17.80;99.90;;;;;;5062576;28;20655;-69
2021/09/22 09:34:01;;;;;;;5.40;2.50;;;18.00;99.90;;;;;;5063759;28;20209;-70
2021/09/22 09:36:32;;;;;;;6.78;2.60;;;18.10;99.90;;;;;;5045253;28;20183;-71
2021/09/22 09:39:05;;;;;;;5.70;2.53;;;18.10;99.90;;;;;;5063834;28;20538;-68
2021/09/22 09:41:49;;;;;;;6.53;2.80;;;18.30;99.90;;;;;;5062598;28;20241;-66
2021/09/22 09:44:18;;;;;;;6.15;2.60;;;18.30;99.90;;;;;;5063469;28;20177;-66
2021/09/22 09:46:44;;;;;;;7.10;2.80;;;18.60;99.90;;;;;;5063546;28;20553;-68
2021/09/22 09:49:14;;;;;;;5.60;2.50;;;18.60;99.90;;;;;;5063502;28;20197;-68
2021/09/22 09:51:41;;;;;;;2.92;1.98;;;18.50;99.90;;;;;;5062568;28;20196;-66
2021/09/22 09:54:09;;;;;;;6.85;1.92;;;18.60;99.90;;;;;;5063401;28;20173;-69
2021/09/22 09:56:35;;;;;;;3.95;1.52;;;18.50;99.90;;;;;;5063200;28;20577;-70
2021/09/22 09:59:01;;;;;;;3.25;1.92;;;18.20;99.90;;;;;;5063506;28;20177;-69
2021/09/22 10:01:42;;;;;;;7.30;2.15;;;17.90;99.90;;;;;;5061694;28;20193;-68
2021/09/22 10:04:11;;;;;;;4.82;1.98;;;18.10;99.90;;;;;;5063829;28;20597;-70
2021/09/22 10:06:38;;;;;;;5.78;2.58;;;18.10;99.90;;;;;;5062954;28;20174;-69
2021/09/22 10:09:04;;;;;;;4.07;2.05;;;18.10;99.90;;;;;;5063375;28;20209;-67
2021/09/22 10:11:33;;;;;;;4.95;2.15;;;18.10;99.90;;;;;;5062704;28;20198;-70
2021/09/22 10:13:59;;;;;;;4.10;1.63;;;18.10;99.90;;;;;;5062781;28;20174;-69
2021/09/22 10:16:25;;;;;;;5.38;2.10;;;18.30;99.90;;;;;;5061746;28;20255;-69
2021/09/22 10:18:51;;;;;;;4.85;1.83;;;18.40;99.90;;;;;;5063466;28;20213;-70
2021/09/22 10:21:19;;;;;;;3.03;1.65;;;18.40;99.90;;;;;;5066567;28;20229;-68
2021/09/22 10:23:46;;;;;;;5.75;2.03;;;18.60;99.90;;;;;;5066764;28;20200;-69
2021/09/22 10:26:12;;;;;;;4.38;2.17;;;18.90;99.90;;;;;;5048442;28;20238;-68
2021/09/22 10:28:42;;;;;;;4.90;1.67;;;18.90;99.90;;;;;;5066832;28;20211;-68
2021/09/22 10:31:15;;;;;;;4.00;2.10;;;19.00;99.90;;;;;;5066317;28;20205;-70
2021/09/22 10:33:44;;;;;;;6.20;2.22;;;19.00;99.90;;;;;;5066439;28;20177;-66
2021/09/22 10:36:11;;;;;;;7.38;2.50;;;18.80;99.90;;;;;;5066751;28;20185;-68
2021/09/22 10:38:40;;;;;;;3.60;2.00;;;18.80;99.90;;;;;;5066772;28;20523;-69
2021/09/22 10:41:07;;;;;;;6.55;3.15;;;18.90;99.90;;;;;;5048063;28;20576;-70
2021/09/22 10:43:51;;;;;;;2.40;2.20;;;19.10;99.90;;;;;;5048184;28;20537;-69
2021/09/22 10:46:18;;;;;;;4.13;2.40;;;19.00;99.90;;;;;;5066622;28;20208;-68
2021/09/22 10:48:50;;;;;;;5.13;2.22;;;18.90;99.90;;;;;;5066515;28;20591;-68
2021/09/22 10:51:31;;;;;;;2.50;2.22;;;18.90;99.90;;;;;;5066120;28;20727;-69
2021/09/22 10:54:22;;;;;;;5.18;2.47;;;19.00;99.90;;;;;;5064843;28;20185;-69
2021/09/22 10:56:55;;;;;;;3.88;2.42;;;19.10;99.90;;;;;;5065927;28;20178;-67
2021/09/22 10:59:34;;;;;;;4.47;2.58;;;19.30;99.90;;;;;;5066326;28;20181;-70
2021/09/22 11:02:02;;;;;;;3.05;2.10;;;19.60;99.90;;;;;;5065247;28;20664;-67
2021/09/22 11:04:51;;;;;;;4.43;2.30;;;19.70;99.90;;;;;;5066448;28;20259;-67
2021/09/22 11:07:17;;;;;;;3.20;2.15;;;19.20;99.90;;;;;;5065858;28;20189;-69
2021/09/22 11:09:43;;;;;;;3.47;1.92;;;18.70;99.90;;;;;;5065963;28;20208;-67
2021/09/22 11:12:10;;;;;;;3.25;1.70;;;18.70;99.90;;;;;;5064695;28;20207;-69
2021/09/22 11:14:45;;;;;;;2.65;1.80;;;18.80;99.90;;;;;;5066958;28;20219;-67
2021/09/22 11:17:20;;;;;;;3.33;1.30;;;19.10;99.90;;;;;;5066760;28;20200;-69
2021/09/22 11:19:55;;;;;;;3.35;1.65;;;19.30;99.90;;;;;;5066209;28;20181;-68
2021/09/22 11:22:33;;;;;;;2.45;1.77;;;19.10;99.90;;;;;;5047198;28;20782;-70
2021/09/22 11:25:05;;;;;;;2.72;1.60;;;19.30;99.90;;;;;;5066529;28;20193;-70
2021/09/22 11:27:32;;;;;;;4.30;1.67;;;19.20;99.90;;;;;;5066059;28;20576;-70
2021/09/22 11:30:02;;;;;;;4.38;1.65;;;19.60;99.90;;;;;;5066020;28;20204;-67
2021/09/22 11:32:35;;;;;;;3.33;1.52;;;19.60;99.90;;;;;;5065003;28;20188;-70
2021/09/22 11:35:10;;;;;;;3.97;1.52;;;19.60;99.90;;;;;;5066465;28;20184;-68
2021/09/22 11:37:47;;;;;;;4.38;1.48;;;19.70;99.90;;;;;;5057080;28;20227;-70
2021/09/22 11:40:21;;;;;;;4.72;1.30;;;19.70;99.90;;;;;;5065018;28;20212;-68
2021/09/22 11:42:55;;;;;;;5.00;1.17;;;19.50;99.90;;;;;;5064676;28;20532;-71
2021/09/22 11:45:33;;;;;;;1.63;1.10;;;19.30;99.90;;;;;;5065068;28;20224;-67
2021/09/22 11:47:58;;;;;;;3.25;1.48;;;19.30;99.90;;;;;;5065044;28;20633;-67
2021/09/22 11:50:34;;;;;;;2.13;1.40;;;19.40;99.90;;;;;;5065532;28;20204;-70
2021/09/22 11:53:00;;;;;;;2.65;1.83;;;19.60;99.90;;;;;;5064404;28;20226;-67
2021/09/22 11:55:26;;;;;;;3.95;1.88;;;19.40;99.90;;;;;;5065228;28;20243;-69
2021/09/22 11:57:52;;;;;;;4.03;2.13;;;19.30;99.90;;;;;;5064928;28;20177;-68
2021/09/22 12:00:20;;;;;;;3.88;1.65;;;19.10;99.90;;;;;;5064937;28;20637;-67
2021/09/22 12:02:45;;;;;;;3.63;1.30;;;19.10;99.90;;;;;;5064479;28;20184;-68
2021/09/22 12:05:16;;;;;;;3.53;1.40;;;19.10;99.90;;;;;;5064373;28;20182;-69
2021/09/22 12:07:43;;;;;;;3.10;1.42;;;19.20;99.90;;;;;;5064763;28;20617;-70
2021/09/22 12:10:10;;;;;;;3.10;1.45;;;19.00;99.90;;;;;;5046659;28;20220;-66
2021/09/22 12:12:37;;;;;;;4.65;1.45;;;19.10;99.90;;;;;;5064199;28;20208;-67
2021/09/22 12:15:04;;;;;;;3.53;1.30;;;19.30;99.90;;;;;;5064727;28;20165;-69
2021/09/22 12:17:36;;;;;;;4.47;1.40;;;19.20;99.90;;;;;;5063693;28;20222;-68
2021/09/22 12:20:04;;;;;;;3.03;1.10;;;19.20;99.90;;;;;;5064342;28;20192;-69
2021/09/22 12:22:32;;;;;;;3.65;1.55;;;19.00;99.90;;;;;;5063630;28;20651;-70
2021/09/22 12:24:59;;;;;;;1.95;1.25;;;19.20;99.90;;;;;;5046772;28;20205;-69
2021/09/22 12:27:27;;;;;;;3.08;1.15;;;19.20;99.90;;;;;;5064440;28;20224;-67
2021/09/22 12:29:54;;;;;;;2.88;1.77;;;19.10;99.90;;;;;;5064140;28;20247;-68
2021/09/22 12:32:20;;;;;;;3.00;1.42;;;19.10;99.90;;;;;;5062451;28;20193;-69
2021/09/22 12:34:46;;;;;;;3.97;1.20;;;19.20;99.90;;;;;;5064390;28;20231;-69
2021/09/22 12:37:20;;;;;;;2.60;1.27;;;19.10;99.90;;;;;;5062694;28;20178;-69